createdAt,value
2024-01-11T00:00:26.293Z,588.00
2024-01-11T00:01:26.420Z,586.00
2024-01-11T00:02:26.405Z,585.00
2024-01-11T00:03:26.367Z,584.00
2024-01-11T00:04:26.499Z,583.00
2024-01-11T00:05:26.526Z,580.00
2024-01-11T00:06:26.549Z,579.00
2024-01-11T00:07:26.526Z,579.00
2024-01-11T00:08:26.558Z,579.00
2024-01-11T00:09:26.613Z,581.00
2024-01-11T00:10:26.591Z,580.00
2024-01-11T00:11:26.664Z,585.00
2024-01-11T00:12:26.727Z,586.00
2024-01-11T00:13:26.705Z,587.00
2024-01-11T00:14:26.771Z,584.00
2024-01-11T00:15:26.753Z,583.00
2024-01-11T00:16:26.773Z,582.00
2024-01-11T00:17:26.879Z,581.00
2024-01-11T00:18:26.940Z,585.00
2024-01-11T00:19:26.910Z,587.00
2024-01-11T00:20:26.982Z,586.00
2024-01-11T00:21:26.981Z,584.00
2024-01-11T00:22:26.990Z,586.00
2024-01-11T00:23:27.168Z,587.00
2024-01-11T00:24:27.833Z,588.00
2024-01-11T00:25:27.033Z,588.00
2024-01-11T00:26:27.110Z,587.00
2024-01-11T00:27:27.117Z,592.00
2024-01-11T00:28:27.170Z,599.00
2024-01-11T00:29:27.269Z,605.00
2024-01-11T00:30:27.191Z,603.00
2024-01-11T00:31:27.169Z,600.00
2024-01-11T00:32:27.379Z,603.00
2024-01-11T00:33:27.393Z,603.00
2024-01-11T00:34:27.377Z,603.00
2024-01-11T00:35:27.430Z,601.00
2024-01-11T00:36:27.384Z,596.00
2024-01-11T00:37:27.377Z,602.00
2024-01-11T00:38:27.452Z,608.00
2024-01-11T00:39:27.448Z,608.00
2024-01-11T00:40:27.514Z,607.00
2024-01-11T00:41:27.550Z,599.00
2024-01-11T00:42:27.608Z,593.00
2024-01-11T00:43:27.577Z,589.00
2024-01-11T00:44:27.670Z,591.00
2024-01-11T00:45:27.653Z,590.00
2024-01-11T00:46:27.655Z,593.00
2024-01-11T00:47:27.770Z,599.00
2024-01-11T00:48:27.799Z,606.00
2024-01-11T00:49:27.794Z,606.00
2024-01-11T00:50:27.828Z,605.00
2024-01-11T00:51:27.774Z,602.00
2024-01-11T00:52:27.832Z,595.00
2024-01-11T00:53:27.906Z,588.00
2024-01-11T00:54:27.893Z,588.00
2024-01-11T00:55:27.903Z,596.00
2024-01-11T00:56:27.998Z,596.00
2024-01-11T00:57:27.978Z,591.00
2024-01-11T00:58:27.972Z,586.00
2024-01-11T00:59:28.058Z,584.00
2024-01-11T01:00:28.036Z,580.00
2024-01-11T01:01:28.154Z,579.00
2024-01-11T01:02:28.120Z,580.00
2024-01-11T01:03:28.186Z,581.00
2024-01-11T01:04:28.116Z,580.00
2024-01-11T01:05:28.260Z,579.00
2024-01-11T01:06:28.281Z,581.00
2024-01-11T01:07:28.210Z,582.00
2024-01-11T01:08:28.247Z,579.00
2024-01-11T01:09:28.244Z,581.00
2024-01-11T01:10:28.270Z,581.00
2024-01-11T01:11:28.333Z,584.00
2024-01-11T01:12:28.267Z,589.00
2024-01-11T01:13:28.304Z,588.00
2024-01-11T01:14:28.364Z,586.00
2024-01-11T01:15:28.300Z,585.00
2024-01-11T01:16:28.364Z,581.00
2024-01-11T01:17:28.482Z,578.00
2024-01-11T01:18:28.431Z,577.00
2024-01-11T01:19:28.517Z,577.00
2024-01-11T01:20:28.466Z,574.00
2024-01-11T01:21:28.430Z,572.00
2024-01-11T01:22:28.421Z,570.00
2024-01-11T01:23:28.449Z,569.00
2024-01-11T01:24:28.460Z,568.00
2024-01-11T01:25:28.480Z,570.00
2024-01-11T01:26:28.517Z,568.00
2024-01-11T01:27:28.486Z,566.00
2024-01-11T01:28:28.486Z,563.00
2024-01-11T01:29:28.595Z,565.00
2024-01-11T01:30:28.521Z,567.00
2024-01-11T01:31:28.574Z,569.00
2024-01-11T01:32:28.678Z,568.00
2024-01-11T01:33:28.818Z,572.00
2024-01-11T01:34:28.686Z,574.00
2024-01-11T01:35:28.648Z,570.00
2024-01-11T01:36:28.596Z,573.00
2024-01-11T01:37:28.614Z,572.00
2024-01-11T01:38:28.648Z,562.00
2024-01-11T01:39:28.648Z,564.00
2024-01-11T01:40:28.625Z,564.00
2024-01-11T01:41:28.690Z,566.00
2024-01-11T01:42:28.652Z,568.00
2024-01-11T01:43:28.661Z,568.00
2024-01-11T01:44:28.735Z,566.00
2024-01-11T01:45:28.704Z,562.00
2024-01-11T01:46:28.772Z,561.00
2024-01-11T01:47:28.808Z,560.00
2024-01-11T01:48:28.899Z,558.00
2024-01-11T01:49:28.825Z,557.00
2024-01-11T01:50:28.749Z,558.00
2024-01-11T01:51:28.825Z,556.00
2024-01-11T01:52:28.779Z,557.00
2024-01-11T01:53:28.792Z,556.00
2024-01-11T01:54:28.825Z,560.00
2024-01-11T01:55:28.739Z,559.00
2024-01-11T01:56:28.820Z,558.00
2024-01-11T01:57:28.831Z,560.00
2024-01-11T01:58:28.844Z,559.00
2024-01-11T01:59:28.859Z,558.00
2024-01-11T02:00:28.806Z,557.00
2024-01-11T02:01:28.908Z,555.00
2024-01-11T02:02:28.851Z,552.00
2024-01-11T02:03:28.881Z,549.00
2024-01-11T02:04:28.852Z,551.00
2024-01-11T02:05:28.988Z,555.00
2024-01-11T02:06:28.923Z,552.00
2024-01-11T02:07:28.857Z,555.00
2024-01-11T02:08:28.895Z,555.00
2024-01-11T02:09:28.847Z,559.00
2024-01-11T02:10:28.871Z,561.00
2024-01-11T02:11:28.909Z,559.00
2024-01-11T02:12:28.852Z,558.00
2024-01-11T02:13:28.873Z,555.00
2024-01-11T02:14:28.905Z,554.00
2024-01-11T02:15:28.886Z,554.00
2024-01-11T02:16:28.907Z,553.00
2024-01-11T02:17:29.015Z,555.00
2024-01-11T02:18:28.943Z,555.00
2024-01-11T02:19:29.003Z,556.00
2024-01-11T02:20:28.934Z,554.00
2024-01-11T02:21:28.900Z,552.00
2024-01-11T02:22:28.949Z,556.00
2024-01-11T02:23:29.013Z,554.00
2024-01-11T02:24:28.956Z,556.00
2024-01-11T02:25:28.954Z,559.00
2024-01-11T02:26:28.972Z,557.00
2024-01-11T02:27:28.968Z,556.00
2024-01-11T02:28:28.943Z,556.00
2024-01-11T02:29:29.051Z,556.00
2024-01-11T02:30:28.955Z,554.00
2024-01-11T02:31:28.973Z,555.00
2024-01-11T02:32:29.079Z,555.00
2024-01-11T02:33:29.155Z,555.00
2024-01-11T02:34:29.238Z,552.00
2024-01-11T02:35:29.062Z,553.00
2024-01-11T02:36:28.938Z,553.00
2024-01-11T02:37:28.976Z,552.00
2024-01-11T02:38:29.043Z,551.00
2024-01-11T02:39:29.048Z,549.00
2024-01-11T02:40:29.033Z,547.00
2024-01-11T02:41:29.113Z,546.00
2024-01-11T02:42:29.072Z,545.00
2024-01-11T02:43:29.060Z,543.00
2024-01-11T02:44:29.210Z,541.00
2024-01-11T02:45:29.117Z,542.00
2024-01-11T02:46:29.131Z,547.00
2024-01-11T02:47:29.222Z,550.00
2024-01-11T02:48:29.209Z,549.00
2024-01-11T02:49:29.264Z,550.00
2024-01-11T02:50:29.266Z,549.00
2024-01-11T02:51:29.247Z,545.00
2024-01-11T02:52:29.206Z,544.00
2024-01-11T02:53:29.244Z,545.00
2024-01-11T02:54:29.240Z,548.00
2024-01-11T02:55:29.262Z,549.00
2024-01-11T02:56:29.295Z,553.00
2024-01-11T02:57:29.310Z,552.00
2024-01-11T02:58:29.270Z,549.00
2024-01-11T02:59:29.311Z,545.00
2024-01-11T03:00:29.336Z,549.00
2024-01-11T03:01:29.292Z,551.00
2024-01-11T03:02:29.354Z,548.00
2024-01-11T03:03:29.402Z,544.00
2024-01-11T03:04:29.377Z,542.00
2024-01-11T03:05:29.437Z,543.00
2024-01-11T03:06:29.465Z,545.00
2024-01-11T03:07:29.480Z,544.00
2024-01-11T03:08:29.509Z,544.00
2024-01-11T03:09:29.546Z,544.00
2024-01-11T03:10:29.553Z,544.00
2024-01-11T03:11:29.612Z,545.00
2024-01-11T03:12:29.641Z,546.00
2024-01-11T03:13:29.621Z,546.00
2024-01-11T03:14:29.689Z,543.00
2024-01-11T03:15:29.681Z,544.00
2024-01-11T03:16:29.708Z,542.00
2024-01-11T03:17:29.808Z,548.00
2024-01-11T03:18:29.775Z,547.00
2024-01-11T03:19:29.826Z,546.00
2024-01-11T03:20:29.946Z,545.00
2024-01-11T03:21:29.843Z,545.00
2024-01-11T03:22:29.827Z,545.00
2024-01-11T03:23:29.920Z,544.00
2024-01-11T03:24:29.915Z,542.00
2024-01-11T03:25:29.961Z,540.00
2024-01-11T03:26:30.127Z,539.00
2024-01-11T03:27:29.982Z,538.00
2024-01-11T03:28:30.039Z,541.00
2024-01-11T03:29:30.058Z,544.00
2024-01-11T03:30:30.094Z,545.00
2024-01-11T03:31:30.111Z,551.00
2024-01-11T03:32:30.244Z,555.00
2024-01-11T03:33:30.259Z,555.00
2024-01-11T03:34:30.289Z,553.00
2024-01-11T03:35:30.210Z,549.00
2024-01-11T03:36:30.175Z,546.00
2024-01-11T03:37:30.184Z,544.00
2024-01-11T03:38:30.262Z,540.00
2024-01-11T03:39:30.903Z,540.00
2024-01-11T03:40:30.223Z,542.00
2024-01-11T03:41:30.311Z,544.00
2024-01-11T03:42:30.299Z,545.00
2024-01-11T03:43:30.260Z,545.00
2024-01-11T03:44:30.363Z,541.00
2024-01-11T03:45:30.286Z,537.00
2024-01-11T03:46:30.320Z,537.00
2024-01-11T03:47:30.413Z,539.00
2024-01-11T03:48:30.412Z,534.00
2024-01-11T03:49:30.478Z,534.00
2024-01-11T03:50:30.448Z,534.00
2024-01-11T03:51:30.403Z,537.00
2024-01-11T03:52:30.440Z,540.00
2024-01-11T03:53:30.442Z,547.00
2024-01-11T03:54:30.492Z,547.00
2024-01-11T03:55:30.419Z,542.00
2024-01-11T03:56:30.486Z,543.00
2024-01-11T03:57:30.477Z,543.00
2024-01-11T03:58:30.487Z,539.00
2024-01-11T03:59:30.530Z,537.00
2024-01-11T04:00:30.578Z,540.00
2024-01-11T04:01:30.534Z,541.00
2024-01-11T04:02:30.600Z,540.00
2024-01-11T04:03:30.655Z,537.00
2024-01-11T04:04:30.624Z,537.00
2024-01-11T04:05:30.672Z,535.00
2024-01-11T04:06:30.735Z,533.00
2024-01-11T04:07:30.654Z,534.00
2024-01-11T04:08:30.704Z,533.00
2024-01-11T04:09:30.715Z,538.00
2024-01-11T04:10:30.772Z,539.00
2024-01-11T04:11:30.817Z,543.00
2024-01-11T04:12:30.820Z,543.00
2024-01-11T04:13:30.896Z,544.00
2024-01-11T04:14:31.000Z,542.00
2024-01-11T04:15:30.958Z,542.00
2024-01-11T04:16:31.061Z,544.00
2024-01-11T04:17:31.145Z,545.00
2024-01-11T04:18:31.201Z,546.00
2024-01-11T04:19:31.382Z,545.00
2024-01-11T04:20:31.254Z,543.00
2024-01-11T04:21:31.220Z,544.00
2024-01-11T04:22:31.260Z,542.00
2024-01-11T04:23:31.422Z,539.00
2024-01-11T04:24:31.332Z,537.00
2024-01-11T04:25:31.446Z,535.00
2024-01-11T04:26:31.442Z,533.00
2024-01-11T04:27:38.679Z,530.00
2024-01-11T04:28:38.641Z,526.00
2024-01-11T04:29:38.675Z,527.00
2024-01-11T04:30:38.736Z,531.00
2024-01-11T04:31:46.026Z,532.00
2024-01-11T04:32:46.084Z,526.00
2024-01-11T04:33:45.968Z,533.00
2024-01-11T04:34:45.987Z,534.00
2024-01-11T04:35:45.976Z,536.00
2024-01-11T04:36:45.932Z,538.00
2024-01-11T04:37:45.973Z,540.00
2024-01-11T04:38:45.975Z,542.00
2024-01-11T04:39:45.980Z,549.00
2024-01-11T04:40:45.980Z,550.00
2024-01-11T04:41:46.020Z,550.00
2024-01-11T04:42:45.973Z,547.00
2024-01-11T04:43:46.075Z,545.00
2024-01-11T04:44:46.045Z,546.00
2024-01-11T04:45:46.046Z,544.00
2024-01-11T04:46:46.008Z,547.00
2024-01-11T04:47:46.222Z,551.00
2024-01-11T04:48:46.038Z,553.00
2024-01-11T04:49:46.003Z,551.00
2024-01-11T04:50:46.022Z,548.00
2024-01-11T04:51:45.984Z,547.00
2024-01-11T04:52:45.969Z,548.00
2024-01-11T04:53:46.069Z,551.00
2024-01-11T04:54:45.968Z,551.00
2024-01-11T04:55:45.978Z,552.00
2024-01-11T04:56:46.014Z,548.00
2024-01-11T04:57:46.039Z,549.00
2024-01-11T04:58:46.091Z,550.00
2024-01-11T04:59:46.221Z,550.00
2024-01-11T05:00:46.253Z,546.00
2024-01-11T05:01:46.275Z,547.00
2024-01-11T05:02:46.493Z,547.00
2024-01-11T05:03:46.422Z,545.00
2024-01-11T05:04:46.550Z,540.00
2024-01-11T05:05:46.694Z,540.00
2024-01-11T05:06:46.732Z,542.00
2024-01-11T05:07:46.722Z,547.00
2024-01-11T05:08:46.828Z,546.00
2024-01-11T05:09:46.893Z,545.00
2024-01-11T05:10:46.920Z,545.00
2024-01-11T05:11:47.008Z,546.00
2024-01-11T05:12:47.059Z,548.00
2024-01-11T05:13:47.119Z,547.00
2024-01-11T05:14:47.248Z,550.00
2024-01-11T05:15:47.278Z,550.00
2024-01-11T05:16:47.355Z,550.00
2024-01-11T05:17:47.490Z,551.00
2024-01-11T05:18:47.560Z,552.00
2024-01-11T05:19:47.523Z,551.00
2024-01-11T05:20:47.633Z,551.00
2024-01-11T05:21:47.659Z,555.00
2024-01-11T05:22:47.725Z,554.00
2024-01-11T05:23:47.764Z,555.00
2024-01-11T05:24:47.870Z,554.00
2024-01-11T05:25:47.907Z,553.00
2024-01-11T05:26:48.070Z,552.00
2024-01-11T05:27:48.069Z,550.00
2024-01-11T05:28:48.085Z,545.00
2024-01-11T05:29:48.240Z,544.00
2024-01-11T05:30:48.251Z,547.00
2024-01-11T05:31:48.546Z,550.00
2024-01-11T05:32:48.566Z,554.00
2024-01-11T05:33:49.311Z,557.00
2024-01-11T05:34:48.681Z,555.00
2024-01-11T05:35:48.562Z,552.00
2024-01-11T05:36:48.646Z,553.00
2024-01-11T05:37:48.727Z,553.00
2024-01-11T05:38:48.784Z,555.00
2024-01-11T05:39:48.824Z,554.00
2024-01-11T05:40:48.870Z,549.00
2024-01-11T05:41:49.013Z,547.00
2024-01-11T05:42:49.013Z,548.00
2024-01-11T05:43:49.084Z,552.00
2024-01-11T05:44:49.165Z,550.00
2024-01-11T05:45:49.269Z,543.00
2024-01-11T05:46:49.255Z,537.00
2024-01-11T05:47:49.403Z,538.00
2024-01-11T05:48:49.470Z,537.00
2024-01-11T05:49:49.412Z,537.00
2024-01-11T05:50:49.568Z,534.00
2024-01-11T05:51:49.517Z,536.00
2024-01-11T05:52:49.579Z,534.00
2024-01-11T05:53:49.570Z,536.00
2024-01-11T05:54:49.607Z,534.00
2024-01-11T05:55:50.936Z,536.00
2024-01-11T05:56:49.715Z,536.00
2024-01-11T05:57:49.728Z,535.00
2024-01-11T05:58:49.811Z,532.00
2024-01-11T05:59:49.862Z,530.00
2024-01-11T06:00:50.599Z,534.00
2024-01-11T06:02:15.642Z,539.00
2024-01-11T06:02:50.020Z,540.00
2024-01-11T06:03:50.068Z,541.00
2024-01-11T06:04:50.026Z,542.00
2024-01-11T06:05:50.032Z,548.00
2024-01-11T06:06:50.037Z,552.00
2024-01-11T06:07:50.059Z,552.00
2024-01-11T06:08:50.161Z,547.00
2024-01-11T06:09:50.034Z,540.00
2024-01-11T06:10:50.052Z,544.00
2024-01-11T06:11:50.042Z,545.00
2024-01-11T06:12:50.080Z,549.00
2024-01-11T06:13:49.994Z,556.00
2024-01-11T06:14:50.031Z,558.00
2024-01-11T06:15:50.120Z,560.00
2024-01-11T06:16:49.991Z,563.00
2024-01-11T06:17:50.198Z,569.00
2024-01-11T06:18:50.128Z,572.00
2024-01-11T06:19:50.026Z,565.00
2024-01-11T06:20:50.047Z,565.00
2024-01-11T06:21:50.052Z,564.00
2024-01-11T06:22:50.042Z,562.00
2024-01-11T06:23:50.094Z,560.00
2024-01-11T06:24:50.055Z,564.00
2024-01-11T06:25:50.023Z,566.00
2024-01-11T06:26:50.078Z,559.00
2024-01-11T06:27:50.083Z,558.00
2024-01-11T06:28:50.080Z,564.00
2024-01-11T06:29:50.189Z,573.00
2024-01-11T06:30:50.142Z,613.00
2024-01-11T06:31:50.106Z,586.00
2024-01-11T06:32:50.181Z,572.00
2024-01-11T06:33:51.655Z,567.00
2024-01-11T06:34:50.109Z,559.00
2024-01-11T06:35:51.150Z,578.00
2024-01-11T06:36:50.042Z,579.00
2024-01-11T06:37:50.040Z,558.00
2024-01-11T06:38:50.088Z,572.00
2024-01-11T06:39:50.049Z,527.00
2024-01-11T06:40:50.259Z,582.00
2024-01-11T06:41:50.174Z,538.00
2024-01-11T06:42:50.283Z,598.00
2024-01-11T06:43:50.395Z,602.00
2024-01-11T06:44:50.509Z,620.00
2024-01-11T06:45:50.506Z,614.00
2024-01-11T06:47:13.034Z,653.00
2024-01-11T06:47:50.901Z,675.00
2024-01-11T06:48:50.570Z,670.00
2024-01-11T06:49:50.677Z,661.00
2024-01-11T06:50:52.048Z,634.00
2024-01-11T06:51:50.368Z,618.00
2024-01-11T06:52:50.445Z,616.00
2024-01-11T06:53:50.386Z,610.00
2024-01-11T06:54:50.389Z,604.00
2024-01-11T06:55:50.403Z,596.00
2024-01-11T06:56:50.430Z,589.00
2024-01-11T06:57:50.517Z,588.00
2024-01-11T06:58:50.378Z,587.00
2024-01-11T06:59:50.508Z,586.00
2024-01-11T07:00:50.882Z,587.00
2024-01-11T07:01:50.350Z,591.00
2024-01-11T07:02:50.526Z,598.00
2024-01-11T07:03:50.422Z,604.00
2024-01-11T07:04:50.366Z,604.00
2024-01-11T07:05:50.802Z,593.00
2024-01-11T07:06:50.420Z,592.00
2024-01-11T07:07:50.534Z,652.00
2024-01-11T07:08:50.555Z,638.00
2024-01-11T07:09:50.558Z,636.00
2024-01-11T07:10:52.160Z,610.00
2024-01-11T07:11:50.810Z,606.00
2024-01-11T07:12:50.783Z,601.00
2024-01-11T07:13:50.897Z,602.00
2024-01-11T07:14:50.908Z,605.00
2024-01-11T07:15:51.184Z,687.00
2024-01-11T07:16:51.047Z,668.00
2024-01-11T07:17:51.531Z,650.00
2024-01-11T07:18:51.563Z,632.00
2024-01-11T07:19:51.140Z,605.00
2024-01-11T07:20:51.779Z,603.00
2024-01-11T07:21:51.266Z,593.00
2024-01-11T07:22:51.312Z,590.00
2024-01-11T07:23:51.428Z,657.00
2024-01-11T07:24:51.433Z,670.00
2024-01-11T07:25:51.861Z,611.00
2024-01-11T07:26:51.527Z,599.00
2024-01-11T07:27:51.677Z,663.00
2024-01-11T07:28:51.622Z,683.00
2024-01-11T07:29:51.776Z,664.00
2024-01-11T07:30:51.915Z,609.00
2024-01-11T07:31:51.842Z,615.00
2024-01-11T07:32:52.008Z,614.00
2024-01-11T07:33:52.580Z,838.00
2024-01-11T07:34:51.993Z,975.00
2024-01-11T07:35:52.409Z,763.00
2024-01-11T07:36:52.398Z,775.00
2024-01-11T07:37:52.137Z,811.00
2024-01-11T07:38:52.188Z,980.00
2024-01-11T07:39:52.158Z,1078.00
2024-01-11T07:40:52.821Z,976.00
2024-01-11T07:41:52.438Z,1005.00
2024-01-11T07:42:52.301Z,1051.00
2024-01-11T07:43:54.682Z,1026.00
2024-01-11T07:44:52.476Z,1001.00
2024-01-11T07:45:52.341Z,884.00
2024-01-11T07:46:54.535Z,725.00
2024-01-11T07:47:53.265Z,717.00
2024-01-11T07:48:52.826Z,739.00
2024-01-11T07:49:52.841Z,744.00
2024-01-11T07:50:52.440Z,754.00
2024-01-11T07:51:52.310Z,818.00
2024-01-11T07:52:52.383Z,800.00
2024-01-11T07:53:52.785Z,789.00
2024-01-11T07:54:52.433Z,880.00
2024-01-11T07:55:52.466Z,893.00
2024-01-11T07:56:52.447Z,848.00
2024-01-11T07:57:52.355Z,946.00
2024-01-11T07:58:53.135Z,938.00
2024-01-11T07:59:53.082Z,1017.00
2024-01-11T08:00:52.512Z,810.00
2024-01-11T08:01:52.436Z,1035.00
2024-01-11T08:02:53.014Z,1052.00
2024-01-11T08:03:53.302Z,950.00
2024-01-11T08:04:53.065Z,958.00
2024-01-11T08:05:52.508Z,935.00
2024-01-11T08:06:53.080Z,937.00
2024-01-11T08:07:52.384Z,898.00
2024-01-11T08:08:53.380Z,822.00
2024-01-11T08:10:18.650Z,932.00
2024-01-11T08:10:52.756Z,950.00
2024-01-11T08:11:53.662Z,923.00
2024-01-11T08:12:53.383Z,998.00
2024-01-11T08:13:52.593Z,999.00
2024-01-11T08:14:52.690Z,971.00
2024-01-11T08:15:52.983Z,998.00
2024-01-11T08:16:52.992Z,1106.00
2024-01-11T08:17:52.792Z,1184.00
2024-01-11T08:18:52.660Z,1273.00
2024-01-11T08:19:53.581Z,1247.00
2024-01-11T08:20:52.720Z,1111.00
2024-01-11T08:21:53.083Z,1099.00
2024-01-11T08:22:52.640Z,1140.00
2024-01-11T08:23:52.711Z,1119.00
2024-01-11T08:24:53.250Z,1148.00
2024-01-11T08:25:52.748Z,1160.00
2024-01-11T08:26:53.074Z,1070.00
2024-01-11T08:27:53.560Z,1064.00
2024-01-11T08:28:53.028Z,1108.00
2024-01-11T08:29:52.671Z,1098.00
2024-01-11T08:30:53.656Z,1071.00
2024-01-11T08:31:53.599Z,1104.00
2024-01-11T08:32:52.993Z,998.00
2024-01-11T08:33:56.442Z,883.00
2024-01-11T08:34:53.314Z,880.00
2024-01-11T08:35:53.270Z,904.00
2024-01-11T08:36:53.326Z,903.00
2024-01-11T08:37:53.653Z,909.00
2024-01-11T08:38:53.299Z,1027.00
2024-01-11T08:39:53.795Z,930.00
2024-01-11T08:40:53.680Z,791.00
2024-01-11T08:41:52.827Z,774.00
2024-01-11T08:42:52.822Z,745.00
2024-01-11T08:43:52.817Z,792.00
2024-01-11T08:44:52.828Z,798.00
2024-01-11T08:45:52.945Z,808.00
2024-01-11T08:46:52.849Z,847.00
2024-01-11T08:47:52.900Z,818.00
2024-01-11T08:48:52.964Z,770.00
2024-01-11T08:49:52.793Z,767.00
2024-01-11T08:50:52.957Z,704.00
2024-01-11T08:51:52.822Z,703.00
2024-01-11T08:52:52.899Z,737.00
2024-01-11T08:53:52.893Z,736.00
2024-01-11T08:54:52.953Z,730.00
2024-01-11T08:55:52.905Z,717.00
2024-01-11T08:56:53.287Z,710.00
2024-01-11T08:57:53.219Z,704.00
2024-01-11T08:59:15.479Z,701.00
2024-01-11T08:59:52.868Z,714.00
2024-01-11T09:00:52.908Z,712.00
2024-01-11T09:01:57.823Z,703.00
2024-01-11T09:02:53.844Z,709.00
2024-01-11T09:03:52.916Z,751.00
2024-01-11T09:04:52.881Z,811.00
2024-01-11T09:05:53.652Z,691.00
2024-01-11T09:06:52.842Z,675.00
2024-01-11T09:07:54.423Z,671.00
2024-01-11T09:08:53.243Z,670.00
2024-01-11T09:09:56.777Z,675.00
2024-01-11T09:10:52.845Z,679.00
2024-01-11T09:11:52.811Z,680.00
2024-01-11T09:12:52.882Z,682.00
2024-01-11T09:13:52.821Z,726.00
2024-01-11T09:14:52.996Z,706.00
2024-01-11T09:15:52.887Z,731.00
2024-01-11T09:16:52.860Z,762.00
2024-01-11T09:17:53.064Z,783.00
2024-01-11T09:18:52.902Z,802.00
2024-01-11T09:19:52.934Z,799.00
2024-01-11T09:20:53.839Z,741.00
2024-01-11T09:21:53.244Z,722.00
2024-01-11T09:22:53.242Z,720.00
2024-01-11T09:23:53.181Z,704.00
2024-01-11T09:24:52.856Z,684.00
2024-01-11T09:25:52.847Z,693.00
2024-01-11T09:26:53.323Z,652.00
2024-01-11T09:27:52.878Z,658.00
2024-01-11T09:28:52.873Z,666.00
2024-01-11T09:29:55.628Z,695.00
2024-01-11T09:30:52.986Z,704.00
2024-01-11T09:31:53.289Z,822.00
2024-01-11T09:32:53.149Z,834.00
2024-01-11T09:33:53.044Z,870.00
2024-01-11T09:34:53.055Z,916.00
2024-01-11T09:35:52.999Z,927.00
2024-01-11T09:36:53.285Z,911.00
2024-01-11T09:37:53.667Z,833.00
2024-01-11T09:38:53.002Z,825.00
2024-01-11T09:39:53.014Z,763.00
2024-01-11T09:40:53.326Z,759.00
2024-01-11T09:41:52.926Z,757.00
2024-01-11T09:42:53.689Z,750.00
2024-01-11T09:43:52.929Z,737.00
2024-01-11T09:44:52.979Z,729.00
2024-01-11T09:45:52.888Z,722.00
2024-01-11T09:46:53.248Z,740.00
2024-01-11T09:47:52.934Z,805.00
2024-01-11T09:48:52.997Z,924.00
2024-01-11T09:49:52.978Z,993.00
2024-01-11T09:50:52.924Z,933.00
2024-01-11T09:51:53.279Z,858.00
2024-01-11T09:52:52.881Z,874.00
2024-01-11T09:53:54.830Z,932.00
2024-01-11T09:54:53.013Z,919.00
2024-01-11T09:55:52.895Z,919.00
2024-01-11T09:56:53.381Z,950.00
2024-01-11T09:57:52.953Z,946.00
2024-01-11T09:58:52.981Z,892.00
2024-01-11T09:59:53.779Z,789.00
2024-01-11T10:00:53.107Z,812.00
2024-01-11T10:01:53.306Z,848.00
2024-01-11T10:02:53.744Z,830.00
2024-01-11T10:03:53.339Z,823.00
2024-01-11T10:04:53.566Z,697.00
2024-01-11T10:05:53.273Z,661.00
2024-01-11T10:06:53.606Z,649.00
2024-01-11T10:07:53.223Z,626.00
2024-01-11T10:08:53.386Z,622.00
2024-01-11T10:09:54.151Z,617.00
2024-01-11T10:10:53.909Z,600.00
2024-01-11T10:11:53.619Z,596.00
2024-01-11T10:12:53.428Z,599.00
2024-01-11T10:13:54.147Z,593.00
2024-01-11T10:14:54.059Z,594.00
2024-01-11T10:15:53.841Z,593.00
2024-01-11T10:16:53.549Z,595.00
2024-01-11T10:17:54.507Z,594.00
2024-01-11T10:18:54.338Z,595.00
2024-01-11T10:19:54.232Z,590.00
2024-01-11T10:20:53.911Z,587.00
2024-01-11T10:21:54.953Z,590.00
2024-01-11T10:22:53.690Z,588.00
2024-01-11T10:23:53.709Z,587.00
2024-01-11T10:24:53.823Z,589.00
2024-01-11T10:25:54.007Z,587.00
2024-01-11T10:26:54.453Z,583.00
2024-01-11T10:27:55.404Z,586.00
2024-01-11T10:28:53.938Z,589.00
2024-01-11T10:29:54.399Z,586.00
2024-01-11T10:30:54.613Z,588.00
2024-01-11T10:31:56.760Z,578.00
2024-01-11T10:32:55.203Z,689.00
2024-01-11T10:33:54.257Z,590.00
2024-01-11T10:34:54.456Z,594.00
2024-01-11T10:35:54.296Z,627.00
2024-01-11T10:36:55.203Z,594.00
2024-01-11T10:37:54.279Z,590.00
2024-01-11T10:38:54.100Z,587.00
2024-01-11T10:39:54.119Z,586.00
2024-01-11T10:40:54.257Z,583.00
2024-01-11T10:41:54.569Z,577.00
2024-01-11T10:42:54.137Z,653.00
2024-01-11T10:43:54.253Z,682.00
2024-01-11T10:44:54.269Z,751.00
2024-01-11T10:45:54.268Z,733.00
2024-01-11T10:46:54.338Z,639.00
2024-01-11T10:47:54.808Z,609.00
2024-01-11T10:48:54.395Z,601.00
2024-01-11T10:49:54.588Z,596.00
2024-01-11T10:50:54.193Z,594.00
2024-01-11T10:51:54.587Z,590.00
2024-01-11T10:52:54.146Z,586.00
2024-01-11T10:53:54.536Z,586.00
2024-01-11T10:54:54.120Z,589.00
2024-01-11T10:55:54.424Z,590.00
2024-01-11T10:56:54.187Z,590.00
2024-01-11T10:57:55.665Z,593.00
2024-01-11T10:58:54.119Z,592.00
2024-01-11T10:59:54.201Z,588.00
2024-01-11T11:02:02.917Z,590.00
2024-01-11T11:03:02.616Z,585.00
2024-01-11T11:04:02.356Z,589.00
2024-01-11T11:05:02.491Z,591.00
2024-01-11T11:06:02.508Z,589.00
2024-01-11T11:07:02.491Z,586.00
2024-01-11T11:08:03.290Z,582.00
2024-01-11T11:09:03.118Z,580.00
2024-01-11T11:10:03.259Z,579.00
2024-01-11T11:11:02.779Z,601.00
2024-01-11T11:12:02.433Z,596.00
2024-01-11T11:13:02.757Z,585.00
2024-01-11T11:14:02.455Z,579.00
2024-01-11T11:15:02.386Z,572.00
2024-01-11T11:16:02.550Z,580.00
2024-01-11T11:17:02.725Z,583.00
2024-01-11T11:18:02.400Z,576.00
2024-01-11T11:19:02.430Z,563.00
2024-01-11T11:20:02.405Z,563.00
2024-01-11T11:21:02.314Z,563.00
2024-01-11T11:22:02.350Z,571.00
2024-01-11T11:23:03.334Z,606.00
2024-01-11T11:24:02.427Z,601.00
2024-01-11T11:25:02.364Z,594.00
2024-01-11T11:26:02.340Z,608.00
2024-01-11T11:27:13.612Z,609.00
2024-01-11T11:28:02.317Z,602.00
2024-01-11T11:29:03.299Z,591.00
2024-01-11T11:30:02.640Z,583.00
2024-01-11T11:31:02.339Z,579.00
2024-01-11T11:32:02.545Z,574.00
2024-01-11T11:33:02.425Z,570.00
2024-01-11T11:34:03.912Z,561.00
2024-01-11T11:35:02.340Z,558.00
2024-01-11T11:36:02.388Z,622.00
2024-01-11T11:37:02.739Z,669.00
2024-01-11T11:38:02.362Z,835.00
2024-01-11T11:39:02.404Z,839.00
2024-01-11T11:40:02.422Z,857.00
2024-01-11T11:41:02.764Z,712.00
2024-01-11T11:42:02.454Z,907.00
2024-01-11T11:43:03.273Z,721.00
2024-01-11T11:44:02.561Z,789.00
2024-01-11T11:45:04.136Z,872.00
2024-01-11T11:46:04.188Z,715.00
2024-01-11T11:47:03.110Z,688.00
2024-01-11T11:48:03.105Z,663.00
2024-01-11T11:49:02.988Z,672.00
2024-01-11T11:50:02.555Z,647.00
2024-01-11T11:51:02.612Z,619.00
2024-01-11T11:52:02.624Z,600.00
2024-01-11T11:53:02.658Z,591.00
2024-01-11T11:54:02.654Z,587.00
2024-01-11T11:55:02.754Z,583.00
2024-01-11T11:56:02.718Z,583.00
2024-01-11T11:57:03.128Z,583.00
2024-01-11T11:58:02.912Z,706.00
2024-01-11T11:59:02.835Z,598.00
2024-01-11T12:00:02.821Z,581.00
2024-01-11T12:01:02.817Z,574.00
2024-01-11T12:02:02.834Z,566.00
2024-01-11T12:03:03.032Z,559.00
2024-01-11T12:04:03.018Z,552.00
2024-01-11T12:05:03.195Z,549.00
2024-01-11T12:06:03.214Z,549.00
2024-01-11T12:07:03.373Z,544.00
2024-01-11T12:08:03.097Z,543.00
2024-01-11T12:09:03.042Z,539.00
2024-01-11T12:10:03.151Z,542.00
2024-01-11T12:11:03.149Z,545.00
2024-01-11T12:12:11.473Z,542.00
2024-01-11T12:13:04.197Z,544.00
2024-01-11T12:14:03.872Z,546.00
2024-01-11T12:15:03.284Z,546.00
2024-01-11T12:16:03.176Z,548.00
2024-01-11T12:17:03.185Z,555.00
2024-01-11T12:18:03.381Z,551.00
2024-01-11T12:19:03.676Z,550.00
2024-01-11T12:20:03.259Z,548.00
2024-01-11T12:21:03.187Z,549.00
2024-01-11T12:22:03.248Z,553.00
2024-01-11T12:23:03.285Z,589.00
2024-01-11T12:24:03.264Z,606.00
2024-01-11T12:25:03.245Z,644.00
2024-01-11T12:26:03.258Z,636.00
2024-01-11T12:27:03.326Z,644.00
2024-01-11T12:28:03.477Z,736.00
2024-01-11T12:29:03.357Z,728.00